sensor_id;sensor_type;location;lat;lon;timestamp;pressure;altitude;pressure_sealevel;temperature;humidity
66486;BME280;53303;47.476;8.084;2023-05-23T00:00:55;95199.69;;;22.74;51.02
66486;BME280;53303;47.476;8.084;2023-05-23T00:03:21;95183.63;;;22.67;50.85
66486;BME280;53303;47.476;8.084;2023-05-23T00:05:47;95195.63;;;22.75;50.96
66486;BME280;53303;47.476;8.084;2023-05-23T00:08:13;95196.38;;;22.76;50.98
66486;BME280;53303;47.476;8.084;2023-05-23T00:10:38;95194.69;;;22.73;50.96
66486;BME280;53303;47.476;8.084;2023-05-23T00:13:04;95201.72;;;22.74;50.99
66486;BME280;53303;47.476;8.084;2023-05-23T00:15:36;95197.66;;;22.75;50.92
66486;BME280;53303;47.476;8.084;2023-05-23T00:18:02;95199.69;;;22.74;51.11
66486;BME280;53303;47.476;8.084;2023-05-23T00:20:27;95192.22;;;22.69;51.11
66486;BME280;53303;47.476;8.084;2023-05-23T00:22:53;95175.91;;;22.60;50.96
66486;BME280;53303;47.476;8.084;2023-05-23T00:25:25;95180.63;;;22.65;51.16
66486;BME280;53303;47.476;8.084;2023-05-23T00:28:04;95191.34;;;22.74;50.90
66486;BME280;53303;47.476;8.084;2023-05-23T00:30:30;95195.41;;;22.73;51.05
66486;BME280;53303;47.476;8.084;2023-05-23T00:32:58;95191.13;;;22.72;51.00
66486;BME280;53303;47.476;8.084;2023-05-23T00:35:25;95208.03;;;22.74;50.84
66486;BME280;53303;47.476;8.084;2023-05-23T00:37:50;95208.03;;;22.74;50.93
66486;BME280;53303;47.476;8.084;2023-05-23T00:40:18;95197.53;;;22.67;50.91
66486;BME280;53303;47.476;8.084;2023-05-23T00:42:44;95205.81;;;22.73;50.90
66486;BME280;53303;47.476;8.084;2023-05-23T00:45:10;95195.94;;;22.72;51.04
66486;BME280;53303;47.476;8.084;2023-05-23T00:47:39;95196.91;;;22.74;50.96
66486;BME280;53303;47.476;8.084;2023-05-23T00:50:10;95197.47;;;22.73;50.91
66486;BME280;53303;47.476;8.084;2023-05-23T00:52:37;95198.19;;;22.73;50.87
66486;BME280;53303;47.476;8.084;2023-05-23T00:55:03;95203.75;;;22.73;50.85
66486;BME280;53303;47.476;8.084;2023-05-23T00:57:29;95201.50;;;22.72;50.90
66486;BME280;53303;47.476;8.084;2023-05-23T00:59:55;95197.97;;;22.71;50.69
66486;BME280;53303;47.476;8.084;2023-05-23T01:02:20;95192.53;;;22.66;50.98
66486;BME280;53303;47.476;8.084;2023-05-23T01:04:49;95213.38;;;22.72;50.88
66486;BME280;53303;47.476;8.084;2023-05-23T01:07:22;95188.00;;;22.62;50.60
66486;BME280;53303;47.476;8.084;2023-05-23T01:09:47;95201.50;;;22.72;50.97
66486;BME280;53303;47.476;8.084;2023-05-23T01:15:11;95202.03;;;22.70;50.94
66486;BME280;53303;47.476;8.084;2023-05-23T01:20:41;95197.78;;;22.69;50.88
66486;BME280;53303;47.476;8.084;2023-05-23T01:28:36;95201.25;;;22.56;51.19
66486;BME280;53303;47.476;8.084;2023-05-23T01:31:03;95211.22;;;22.65;51.02
66486;BME280;53303;47.476;8.084;2023-05-23T01:33:31;95209.94;;;22.66;50.97
66486;BME280;53303;47.476;8.084;2023-05-23T01:36:01;95210.16;;;22.68;50.94
66486;BME280;53303;47.476;8.084;2023-05-23T01:38:31;95208.91;;;22.69;50.93
66486;BME280;53303;47.476;8.084;2023-05-23T01:40:57;95191.53;;;22.63;50.84
66486;BME280;53303;47.476;8.084;2023-05-23T01:43:26;95206.13;;;22.69;50.86
66486;BME280;53303;47.476;8.084;2023-05-23T01:45:53;95206.84;;;22.70;50.86
66486;BME280;53303;47.476;8.084;2023-05-23T01:48:20;95196.03;;;22.66;50.91
66486;BME280;53303;47.476;8.084;2023-05-23T01:50:46;95189.81;;;22.60;50.74
66486;BME280;53303;47.476;8.084;2023-05-23T01:53:19;95208.91;;;22.69;50.81
66486;BME280;53303;47.476;8.084;2023-05-23T01:55:46;95215.19;;;22.70;50.86
66486;BME280;53303;47.476;8.084;2023-05-23T01:58:12;95208.13;;;22.69;50.74
66486;BME280;53303;47.476;8.084;2023-05-23T02:00:39;95202.44;;;22.61;50.91
66486;BME280;53303;47.476;8.084;2023-05-23T02:03:07;95206.84;;;22.70;50.88
66486;BME280;53303;47.476;8.084;2023-05-23T02:05:35;95211.66;;;22.69;50.86
66486;BME280;53303;47.476;8.084;2023-05-23T02:08:01;95218.50;;;22.68;50.90
66486;BME280;53303;47.476;8.084;2023-05-23T02:10:26;95203.41;;;22.63;50.80
66486;BME280;53303;47.476;8.084;2023-05-23T02:12:52;95218.50;;;22.68;50.84
66486;BME280;53303;47.476;8.084;2023-05-23T02:15:22;95212.94;;;22.68;50.75
66486;BME280;53303;47.476;8.084;2023-05-23T02:17:47;95200.72;;;22.58;50.51
66486;BME280;53303;47.476;8.084;2023-05-23T02:20:12;95210.91;;;22.69;50.80
66486;BME280;53303;47.476;8.084;2023-05-23T02:22:38;95197.94;;;22.58;50.68
66486;BME280;53303;47.476;8.084;2023-05-23T02:25:10;95210.25;;;22.62;50.78
66486;BME280;53303;47.476;8.084;2023-05-23T02:27:38;95216.47;;;22.69;50.81
66486;BME280;53303;47.476;8.084;2023-05-23T02:30:03;95215.72;;;22.68;50.80
66486;BME280;53303;47.476;8.084;2023-05-23T02:32:29;95219.25;;;22.69;50.79
66486;BME280;53303;47.476;8.084;2023-05-23T02:34:54;95219.56;;;22.65;50.78
66486;BME280;53303;47.476;8.084;2023-05-23T02:37:20;95213.56;;;22.61;50.73
66486;BME280;53303;47.476;8.084;2023-05-23T02:39:47;95223.09;;;22.66;50.77
66486;BME280;53303;47.476;8.084;2023-05-23T02:42:13;95218.50;;;22.68;50.80
66486;BME280;53303;47.476;8.084;2023-05-23T02:44:38;95213.25;;;22.65;50.76
66486;BME280;53303;47.476;8.084;2023-05-23T02:47:06;95208.00;;;22.61;50.84
66486;BME280;53303;47.476;8.084;2023-05-23T02:49:31;95225.34;;;22.67;50.72
66486;BME280;53303;47.476;8.084;2023-05-23T02:51:57;95228.44;;;22.63;50.55
66486;BME280;53303;47.476;8.084;2023-05-23T02:54:22;95226.63;;;22.66;50.87
66486;BME280;53303;47.476;8.084;2023-05-23T02:56:48;95228.13;;;22.67;50.65
66486;BME280;53303;47.476;8.084;2023-05-23T02:59:14;95224.06;;;22.68;50.65
66486;BME280;53303;47.476;8.084;2023-05-23T03:01:40;95193.59;;;22.43;50.65
66486;BME280;53303;47.476;8.084;2023-05-23T03:04:05;95227.38;;;22.67;50.72
66486;BME280;53303;47.476;8.084;2023-05-23T03:06:31;95230.16;;;22.67;50.78
66486;BME280;53303;47.476;8.084;2023-05-23T03:08:58;95227.38;;;22.67;50.78
66486;BME280;53303;47.476;8.084;2023-05-23T03:11:23;95230.91;;;22.67;50.77
66486;BME280;53303;47.476;8.084;2023-05-23T03:13:49;95229.41;;;22.66;50.69
66486;BME280;53303;47.476;8.084;2023-05-23T03:16:14;95220.19;;;22.58;50.73
66486;BME280;53303;47.476;8.084;2023-05-23T03:18:40;95229.19;;;22.64;50.80
66486;BME280;53303;47.476;8.084;2023-05-23T03:21:08;95232.19;;;22.66;50.76
66486;BME280;53303;47.476;8.084;2023-05-23T03:23:34;95230.16;;;22.67;50.72
66486;BME280;53303;47.476;8.084;2023-05-23T03:26:01;95217.63;;;22.60;50.62
66486;BME280;53303;47.476;8.084;2023-05-23T03:28:27;95223.63;;;22.64;50.99
66486;BME280;53303;47.476;8.084;2023-05-23T03:30:53;95221.16;;;22.60;50.66
66486;BME280;53303;47.476;8.084;2023-05-23T03:33:18;95230.16;;;22.67;50.82
66486;BME280;53303;47.476;8.084;2023-05-23T03:35:43;95241.28;;;22.67;50.77
66486;BME280;53303;47.476;8.084;2023-05-23T03:38:09;95237.00;;;22.66;50.77
66486;BME280;53303;47.476;8.084;2023-05-23T03:40:34;95230.47;;;22.63;50.63
66486;BME280;53303;47.476;8.084;2023-05-23T03:43:06;95229.94;;;22.65;50.73
66486;BME280;53303;47.476;8.084;2023-05-23T03:45:32;95222.75;;;22.56;50.75
66486;BME280;53303;47.476;8.084;2023-05-23T03:47:58;95230.25;;;22.61;50.72
66486;BME280;53303;47.476;8.084;2023-05-23T03:50:26;95244.38;;;22.63;50.67
66486;BME280;53303;47.476;8.084;2023-05-23T03:52:55;95246.63;;;22.65;50.84
66486;BME280;53303;47.476;8.084;2023-05-23T03:55:23;95240.63;;;22.60;50.63
66486;BME280;53303;47.476;8.084;2023-05-23T03:57:50;95246.50;;;22.57;50.70
66486;BME280;53303;47.476;8.084;2023-05-23T04:00:18;95249.94;;;22.63;50.72
66486;BME280;53303;47.476;8.084;2023-05-23T04:02:45;95248.13;;;22.66;50.70
66486;BME280;53303;47.476;8.084;2023-05-23T04:05:11;95246.41;;;22.62;50.84
66486;BME280;53303;47.476;8.084;2023-05-23T04:07:37;95249.72;;;22.61;51.01
66486;BME280;53303;47.476;8.084;2023-05-23T04:10:03;95260.75;;;22.67;50.93
66486;BME280;53303;47.476;8.084;2023-05-23T04:12:29;95264.50;;;22.69;50.93
66486;BME280;53303;47.476;8.084;2023-05-23T04:14:57;95256.69;;;22.68;50.89
66486;BME280;53303;47.476;8.084;2023-05-23T04:17:23;95258.94;;;22.69;50.76
66486;BME280;53303;47.476;8.084;2023-05-23T04:19:50;95254.44;;;22.66;50.51
66486;BME280;53303;47.476;8.084;2023-05-23T04:22:16;95256.03;;;22.61;50.78
66486;BME280;53303;47.476;8.084;2023-05-23T04:24:41;95275.41;;;22.67;50.50
66486;BME280;53303;47.476;8.084;2023-05-23T04:27:07;95273.16;;;22.66;50.40
66486;BME280;53303;47.476;8.084;2023-05-23T04:29:33;95277.75;;;22.63;50.32
66486;BME280;53303;47.476;8.084;2023-05-23T04:32:00;95276.69;;;22.66;50.14
66486;BME280;53303;47.476;8.084;2023-05-23T04:34:25;95274.53;;;22.59;50.42
66486;BME280;53303;47.476;8.084;2023-05-23T04:36:51;95282.56;;;22.62;50.35
66486;BME280;53303;47.476;8.084;2023-05-23T04:39:18;95288.34;;;22.65;50.33
66486;BME280;53303;47.476;8.084;2023-05-23T04:41:43;95290.38;;;22.64;50.20
66486;BME280;53303;47.476;8.084;2023-05-23T04:44:10;95284.03;;;22.63;50.23
66486;BME280;53303;47.476;8.084;2023-05-23T04:46:39;95282.66;;;22.57;50.32
66486;BME280;53303;47.476;8.084;2023-05-23T04:49:09;95283.81;;;22.61;50.18
66486;BME280;53303;47.476;8.084;2023-05-23T04:51:34;95283.31;;;22.63;50.23
66486;BME280;53303;47.476;8.084;2023-05-23T04:54:03;95277.38;;;22.53;50.04
66486;BME280;53303;47.476;8.084;2023-05-23T04:56:28;95290.16;;;22.62;50.14
66486;BME280;53303;47.476;8.084;2023-05-23T04:58:54;95283.09;;;22.61;50.10
66486;BME280;53303;47.476;8.084;2023-05-23T05:01:20;95278.56;;;22.58;49.88
66486;BME280;53303;47.476;8.084;2023-05-23T05:03:48;95278.34;;;22.56;49.98
66486;BME280;53303;47.476;8.084;2023-05-23T05:06:14;95284.66;;;22.56;50.12
66486;BME280;53303;47.476;8.084;2023-05-23T05:08:40;95276.00;;;22.60;50.07
66486;BME280;53303;47.476;8.084;2023-05-23T05:11:06;95280.09;;;22.59;49.91
66486;BME280;53303;47.476;8.084;2023-05-23T05:13:31;95280.38;;;22.55;50.08
66486;BME280;53303;47.476;8.084;2023-05-23T05:16:00;95283.59;;;22.59;49.99
66486;BME280;53303;47.476;8.084;2023-05-23T05:18:26;95273.31;;;22.54;49.93
66486;BME280;53303;47.476;8.084;2023-05-23T05:20:51;95288.44;;;22.59;49.92
66486;BME280;53303;47.476;8.084;2023-05-23T05:23:20;95273.09;;;22.52;50.02
66486;BME280;53303;47.476;8.084;2023-05-23T05:25:50;95286.91;;;22.58;49.92
66486;BME280;53303;47.476;8.084;2023-05-23T05:28:15;95278.88;;;22.54;50.01
66486;BME280;53303;47.476;8.084;2023-05-23T05:30:41;95287.69;;;22.58;49.81
66486;BME280;53303;47.476;8.084;2023-05-23T05:33:06;95283.38;;;22.57;49.91
66486;BME280;53303;47.476;8.084;2023-05-23T05:35:33;95292.47;;;22.58;49.93
66486;BME280;53303;47.476;8.084;2023-05-23T05:37:59;95290.47;;;22.58;49.91
66486;BME280;53303;47.476;8.084;2023-05-23T05:40:31;95288.22;;;22.57;49.93
66486;BME280;53303;47.476;8.084;2023-05-23T05:42:57;95277.16;;;22.51;49.96
66486;BME280;53303;47.476;8.084;2023-05-23T05:45:22;95282.19;;;22.53;49.89
66486;BME280;53303;47.476;8.084;2023-05-23T05:47:48;95281.13;;;22.56;49.93
66486;BME280;53303;47.476;8.084;2023-05-23T05:50:13;95290.22;;;22.56;49.92
66486;BME280;53303;47.476;8.084;2023-05-23T05:52:40;95295.25;;;22.58;49.99
66486;BME280;53303;47.476;8.084;2023-05-23T05:55:09;95292.25;;;22.56;49.90
66486;BME280;53303;47.476;8.084;2023-05-23T05:57:38;95289.47;;;22.56;49.93
66486;BME280;53303;47.476;8.084;2023-05-23T06:00:11;95285.19;;;22.55;49.99
66486;BME280;53303;47.476;8.084;2023-05-23T06:02:40;95283.69;;;22.54;49.79
66486;BME280;53303;47.476;8.084;2023-05-23T06:05:07;95291.00;;;22.57;50.00
66486;BME280;53303;47.476;8.084;2023-05-23T06:07:39;95293.00;;;22.56;50.01
66486;BME280;53303;47.476;8.084;2023-05-23T06:10:05;95301.88;;;22.55;50.00
66486;BME280;53303;47.476;8.084;2023-05-23T06:12:36;95307.44;;;22.55;49.94
66486;BME280;53303;47.476;8.084;2023-05-23T06:15:02;95298.66;;;22.51;49.93
66486;BME280;53303;47.476;8.084;2023-05-23T06:17:27;95307.19;;;22.53;50.00
66486;BME280;53303;47.476;8.084;2023-05-23T06:19:53;95311.50;;;22.54;50.04
66486;BME280;53303;47.476;8.084;2023-05-23T06:22:18;95312.25;;;22.54;50.09
66486;BME280;53303;47.476;8.084;2023-05-23T06:24:44;95310.50;;;22.51;50.20
66486;BME280;53303;47.476;8.084;2023-05-23T06:27:10;95315.78;;;22.55;50.08
66486;BME280;53303;47.476;8.084;2023-05-23T06:29:36;95314.81;;;22.52;50.30
66486;BME280;53303;47.476;8.084;2023-05-23T06:32:01;95318.31;;;22.53;50.08
66486;BME280;53303;47.476;8.084;2023-05-23T06:34:27;95315.03;;;22.54;50.06
66486;BME280;53303;47.476;8.084;2023-05-23T06:36:53;95320.59;;;22.54;49.81
66486;BME280;53303;47.476;8.084;2023-05-23T06:39:19;95331.19;;;22.56;50.19
66486;BME280;53303;47.476;8.084;2023-05-23T06:41:46;95313.06;;;22.49;50.10
66486;BME280;53303;47.476;8.084;2023-05-23T06:44:12;95318.56;;;22.55;49.94
66486;BME280;53303;47.476;8.084;2023-05-23T06:46:38;95315.53;;;22.53;50.01
66486;BME280;53303;47.476;8.084;2023-05-23T06:49:03;95318.63;;;22.49;50.19
66486;BME280;53303;47.476;8.084;2023-05-23T06:51:31;95318.56;;;22.55;50.12
66486;BME280;53303;47.476;8.084;2023-05-23T06:53:56;95320.59;;;22.54;50.29
66486;BME280;53303;47.476;8.084;2023-05-23T06:56:22;95317.81;;;22.54;50.03
66486;BME280;53303;47.476;8.084;2023-05-23T06:58:50;95309.75;;;22.51;50.11
66486;BME280;53303;47.476;8.084;2023-05-23T07:01:15;95331.72;;;22.54;50.24
66486;BME280;53303;47.476;8.084;2023-05-23T07:03:41;95317.66;;;22.47;50.16
66486;BME280;53303;47.476;8.084;2023-05-23T07:06:08;95329.66;;;22.55;50.15
66486;BME280;53303;47.476;8.084;2023-05-23T07:08:37;95324.41;;;22.51;50.09
66486;BME280;53303;47.476;8.084;2023-05-23T07:11:02;95333.97;;;22.56;50.25
66486;BME280;53303;47.476;8.084;2023-05-23T07:13:28;95346.34;;;22.55;50.09
66486;BME280;53303;47.476;8.084;2023-05-23T07:15:56;95338.00;;;22.55;50.33
66486;BME280;53303;47.476;8.084;2023-05-23T07:18:22;95345.09;;;22.56;50.32
66486;BME280;53303;47.476;8.084;2023-05-23T07:20:48;95341.03;;;22.57;50.20
66486;BME280;53303;47.476;8.084;2023-05-23T07:23:14;95339.31;;;22.54;50.29
66486;BME280;53303;47.476;8.084;2023-05-23T07:25:40;95349.13;;;22.55;50.37
66486;BME280;53303;47.476;8.084;2023-05-23T07:28:09;95342.31;;;22.56;50.09
66486;BME280;53303;47.476;8.084;2023-05-23T07:30:34;95325.78;;;22.45;50.18
66486;BME280;53303;47.476;8.084;2023-05-23T07:33:03;95351.38;;;22.56;50.37
66486;BME280;53303;47.476;8.084;2023-05-23T07:35:28;95342.59;;;22.52;50.34
66486;BME280;53303;47.476;8.084;2023-05-23T07:37:54;95347.34;;;22.57;50.33
66486;BME280;53303;47.476;8.084;2023-05-23T07:40:23;95352.69;;;22.55;50.29
66486;BME280;53303;47.476;8.084;2023-05-23T07:42:48;95359.00;;;22.56;50.42
66486;BME280;53303;47.476;8.084;2023-05-23T07:45:14;95351.91;;;22.55;50.33
66486;BME280;53303;47.476;8.084;2023-05-23T07:47:40;95346.59;;;22.57;50.36
66486;BME280;53303;47.476;8.084;2023-05-23T07:50:06;95349.38;;;22.57;50.31
66486;BME280;53303;47.476;8.084;2023-05-23T07:52:32;95351.38;;;22.56;50.39
66486;BME280;53303;47.476;8.084;2023-05-23T07:55:00;95347.88;;;22.56;50.43
66486;BME280;53303;47.476;8.084;2023-05-23T07:57:25;95346.59;;;22.57;50.48
66486;BME280;53303;47.476;8.084;2023-05-23T07:59:53;95343.88;;;22.51;50.46
66486;BME280;53303;47.476;8.084;2023-05-23T08:02:19;95348.09;;;22.58;50.51
66486;BME280;53303;47.476;8.084;2023-05-23T08:04:48;95348.09;;;22.58;50.42
66486;BME280;53303;47.476;8.084;2023-05-23T08:07:14;95346.09;;;22.58;50.48
66486;BME280;53303;47.476;8.084;2023-05-23T08:09:42;95342.53;;;22.58;50.62
66486;BME280;53303;47.476;8.084;2023-05-23T08:12:08;95345.31;;;22.58;50.49
66486;BME280;53303;47.476;8.084;2023-05-23T08:14:34;95347.13;;;22.55;50.62
66486;BME280;53303;47.476;8.084;2023-05-23T08:17:02;95348.88;;;22.58;50.60
66486;BME280;53303;47.476;8.084;2023-05-23T08:19:30;95354.44;;;22.58;50.67
66486;BME280;53303;47.476;8.084;2023-05-23T08:21:56;95352.16;;;22.57;50.59
66486;BME280;53303;47.476;8.084;2023-05-23T08:24:26;95355.91;;;22.59;50.68
66486;BME280;53303;47.476;8.084;2023-05-23T08:26:51;95356.66;;;22.60;50.62
66486;BME280;53303;47.476;8.084;2023-05-23T08:29:16;95353.66;;;22.58;50.69
66486;BME280;53303;47.476;8.084;2023-05-23T08:31:42;95356.22;;;22.56;50.66
66486;BME280;53303;47.476;8.084;2023-05-23T08:34:08;95362.22;;;22.60;50.73
66486;BME280;53303;47.476;8.084;2023-05-23T08:36:35;95358.16;;;22.61;50.65
66486;BME280;53303;47.476;8.084;2023-05-23T08:39:01;95358.16;;;22.61;50.71
66486;BME280;53303;47.476;8.084;2023-05-23T08:41:29;95350.44;;;22.54;50.71
66486;BME280;53303;47.476;8.084;2023-05-23T08:43:56;95350.56;;;22.61;50.66
66486;BME280;53303;47.476;8.084;2023-05-23T08:46:22;95361.47;;;22.59;50.79
66486;BME280;53303;47.476;8.084;2023-05-23T08:48:53;95356.91;;;22.62;50.71
66486;BME280;53303;47.476;8.084;2023-05-23T08:51:25;95346.31;;;22.60;50.78
66486;BME280;53303;47.476;8.084;2023-05-23T08:53:51;95356.91;;;22.62;50.82
66486;BME280;53303;47.476;8.084;2023-05-23T08:56:21;95349.59;;;22.59;50.76
66486;BME280;53303;47.476;8.084;2023-05-23T08:58:50;95357.66;;;22.62;50.72
66486;BME280;53303;47.476;8.084;2023-05-23T09:01:17;95349.09;;;22.60;50.83
66486;BME280;53303;47.476;8.084;2023-05-23T09:03:44;95357.66;;;22.62;50.97
66486;BME280;53303;47.476;8.084;2023-05-23T09:06:12;95359.13;;;22.63;50.76
66486;BME280;53303;47.476;8.084;2023-05-23T09:08:38;95359.91;;;22.64;51.24
66486;BME280;53303;47.476;8.084;2023-05-23T09:11:05;95358.59;;;22.65;50.71
66486;BME280;53303;47.476;8.084;2023-05-23T09:13:31;95355.59;;;22.63;50.78
66486;BME280;53303;47.476;8.084;2023-05-23T09:18:26;95358.38;;;22.63;50.66
66486;BME280;53303;47.476;8.084;2023-05-23T09:20:52;95353.81;;;22.66;50.91
66486;BME280;53303;47.476;8.084;2023-05-23T09:23:18;95358.84;;;22.67;50.81
66486;BME280;53303;47.476;8.084;2023-05-23T09:25:47;95353.28;;;22.67;50.81
66486;BME280;53303;47.476;8.084;2023-05-23T09:28:13;95347.47;;;22.65;50.84
66486;BME280;53303;47.476;8.084;2023-05-23T09:30:38;95351.78;;;22.66;50.94
66486;BME280;53303;47.476;8.084;2023-05-23T09:33:04;95350.25;;;22.65;50.85
66486;BME280;53303;47.476;8.084;2023-05-23T09:35:30;95339.44;;;22.61;50.71
66486;BME280;53303;47.476;8.084;2023-05-23T09:37:56;95344.94;;;22.67;50.76
66486;BME280;53303;47.476;8.084;2023-05-23T09:40:28;95329.09;;;22.62;50.61
66486;BME280;53303;47.476;8.084;2023-05-23T09:42:54;95342.09;;;22.54;50.98
66486;BME280;53303;47.476;8.084;2023-05-23T09:45:29;95338.19;;;22.62;50.93
66486;BME280;53303;47.476;8.084;2023-05-23T09:47:55;95330.34;;;22.61;50.74
66486;BME280;53303;47.476;8.084;2023-05-23T09:50:21;95332.84;;;22.65;50.86
66486;BME280;53303;47.476;8.084;2023-05-23T09:52:47;95333.28;;;22.69;50.83
66486;BME280;53303;47.476;8.084;2023-05-23T09:55:13;95335.53;;;22.70;50.92
66486;BME280;53303;47.476;8.084;2023-05-23T09:57:40;95337.56;;;22.70;50.85
66486;BME280;53303;47.476;8.084;2023-05-23T10:00:07;95337.56;;;22.70;50.92
66486;BME280;53303;47.476;8.084;2023-05-23T10:03:01;95335.84;;;22.67;51.00
66486;BME280;53303;47.476;8.084;2023-05-23T10:05:34;95341.09;;;22.70;50.94
66486;BME280;53303;47.476;8.084;2023-05-23T10:08:09;95337.56;;;22.70;50.98
66486;BME280;53303;47.476;8.084;2023-05-23T10:13:25;95329.44;;;22.72;50.81
66486;BME280;53303;47.476;8.084;2023-05-23T10:15:54;95331.25;;;22.69;50.89
66486;BME280;53303;47.476;8.084;2023-05-23T10:18:26;95321.31;;;22.74;50.84
66486;BME280;53303;47.476;8.084;2023-05-23T10:20:56;95334.69;;;22.75;50.80
66486;BME280;53303;47.476;8.084;2023-05-23T10:23:27;95330.50;;;22.69;50.87
66486;BME280;53303;47.476;8.084;2023-05-23T10:25:54;95328.41;;;22.75;50.64
66486;BME280;53303;47.476;8.084;2023-05-23T10:28:20;95329.88;;;22.76;50.71
66486;BME280;53303;47.476;8.084;2023-05-23T10:30:46;95328.19;;;22.73;50.65
66486;BME280;53303;47.476;8.084;2023-05-23T10:33:13;95334.19;;;22.77;50.77
66486;BME280;53303;47.476;8.084;2023-05-23T10:35:55;95325.41;;;22.73;50.78
66486;BME280;53303;47.476;8.084;2023-05-23T10:39:18;95320.66;;;22.68;50.69
66486;BME280;53303;47.476;8.084;2023-05-23T10:41:45;95329.16;;;22.75;50.79
66486;BME280;53303;47.476;8.084;2023-05-23T10:46:51;95330.09;;;22.78;50.69
66486;BME280;53303;47.476;8.084;2023-05-23T10:49:17;95324.31;;;22.76;50.70
66486;BME280;53303;47.476;8.084;2023-05-23T10:51:47;95315.03;;;22.73;50.72
66486;BME280;53303;47.476;8.084;2023-05-23T10:54:13;95314.19;;;22.78;50.63
66486;BME280;53303;47.476;8.084;2023-05-23T10:56:39;95312.22;;;22.73;50.65
66486;BME280;53303;47.476;8.084;2023-05-23T10:59:05;95322.75;;;22.80;50.74
66486;BME280;53303;47.476;8.084;2023-05-23T11:01:30;95313.97;;;22.76;50.73
66486;BME280;53303;47.476;8.084;2023-05-23T11:03:56;95312.16;;;22.79;50.82
66486;BME280;53303;47.476;8.084;2023-05-23T11:06:42;95308.41;;;22.76;50.64
66486;BME280;53303;47.476;8.084;2023-05-23T11:09:15;95315.66;;;22.79;50.64
66486;BME280;53303;47.476;8.084;2023-05-23T11:12:00;95316.75;;;22.76;50.53
66486;BME280;53303;47.476;8.084;2023-05-23T11:19:38;95320.19;;;22.83;50.71
66486;BME280;53303;47.476;8.084;2023-05-23T11:22:08;95319.44;;;22.82;50.76
66486;BME280;53303;47.476;8.084;2023-05-23T11:24:53;95318.44;;;22.79;50.71
66486;BME280;53303;47.476;8.084;2023-05-23T11:30:13;95324.22;;;22.81;50.76
66486;BME280;53303;47.476;8.084;2023-05-23T11:32:40;95316.88;;;22.84;50.66
66486;BME280;53303;47.476;8.084;2023-05-23T11:35:07;95312.59;;;22.83;50.66
66486;BME280;53303;47.476;8.084;2023-05-23T11:37:33;95303.50;;;22.83;50.75
66486;BME280;53303;47.476;8.084;2023-05-23T11:42:54;95306.72;;;22.87;50.59
66486;BME280;53303;47.476;8.084;2023-05-23T11:45:23;95303.50;;;22.83;50.52
66486;BME280;53303;47.476;8.084;2023-05-23T11:47:48;95303.50;;;22.83;50.42
66486;BME280;53303;47.476;8.084;2023-05-23T11:50:14;95304.91;;;22.89;50.34
66486;BME280;53303;47.476;8.084;2023-05-23T11:52:40;95295.06;;;22.88;50.24
66486;BME280;53303;47.476;8.084;2023-05-23T11:55:07;95297.31;;;22.90;50.18
66486;BME280;53303;47.476;8.084;2023-05-23T11:57:33;95296.78;;;22.91;50.18
66486;BME280;53303;47.476;8.084;2023-05-23T12:00:02;95301.59;;;22.91;50.19
66486;BME280;53303;47.476;8.084;2023-05-23T12:02:29;95287.69;;;22.91;50.24
66486;BME280;53303;47.476;8.084;2023-05-23T12:04:55;95280.19;;;22.86;50.35
66486;BME280;53303;47.476;8.084;2023-05-23T12:07:20;95294.00;;;22.91;50.28
66486;BME280;53303;47.476;8.084;2023-05-23T12:09:48;95283.19;;;22.88;50.17
66486;BME280;53303;47.476;8.084;2023-05-23T12:12:16;95287.69;;;22.91;50.37
66486;BME280;53303;47.476;8.084;2023-05-23T12:14:42;95277.63;;;22.88;50.13
66486;BME280;53303;47.476;8.084;2023-05-23T12:17:11;95285.13;;;22.93;50.20
66486;BME280;53303;47.476;8.084;2023-05-23T12:19:37;95286.41;;;22.92;50.10
66486;BME280;53303;47.476;8.084;2023-05-23T12:22:06;95273.63;;;22.83;50.24
66486;BME280;53303;47.476;8.084;2023-05-23T12:24:32;95291.00;;;22.89;50.08
66486;BME280;53303;47.476;8.084;2023-05-23T12:27:01;95291.75;;;22.90;50.14
66486;BME280;53303;47.476;8.084;2023-05-23T12:29:32;95294.75;;;22.92;50.15
66486;BME280;53303;47.476;8.084;2023-05-23T12:31:59;95281.38;;;22.90;50.20
66486;BME280;53303;47.476;8.084;2023-05-23T12:34:25;95289.19;;;22.92;50.15
66486;BME280;53303;47.476;8.084;2023-05-23T12:36:54;95288.97;;;22.90;49.97
66486;BME280;53303;47.476;8.084;2023-05-23T12:39:29;95278.88;;;22.87;50.08
66486;BME280;53303;47.476;8.084;2023-05-23T12:42:07;95284.66;;;22.89;50.00
66486;BME280;53303;47.476;8.084;2023-05-23T12:44:34;95278.81;;;22.92;50.19
66486;BME280;53303;47.476;8.084;2023-05-23T12:46:59;95277.53;;;22.93;50.09
66486;BME280;53303;47.476;8.084;2023-05-23T12:49:24;95283.63;;;22.92;50.21
66486;BME280;53303;47.476;8.084;2023-05-23T12:51:50;95291.97;;;22.92;50.11
66486;BME280;53303;47.476;8.084;2023-05-23T12:54:16;95288.88;;;22.95;50.25
66486;BME280;53303;47.476;8.084;2023-05-23T12:56:41;95286.63;;;22.94;50.17
66486;BME280;53303;47.476;8.084;2023-05-23T12:59:07;95285.34;;;22.95;50.09
66486;BME280;53303;47.476;8.084;2023-05-23T13:01:33;95282.34;;;22.93;50.09
66486;BME280;53303;47.476;8.084;2023-05-23T13:03:59;95286.88;;;22.96;50.19
66486;BME280;53303;47.476;8.084;2023-05-23T13:06:27;95286.09;;;22.95;50.21
66486;BME280;53303;47.476;8.084;2023-05-23T13:08:55;95279.25;;;22.96;50.20
66486;BME280;53303;47.476;8.084;2023-05-23T13:11:21;95259.09;;;22.90;50.16
66486;BME280;53303;47.476;8.084;2023-05-23T13:13:47;95277.00;;;22.95;50.20
66486;BME280;53303;47.476;8.084;2023-05-23T13:16:13;95259.63;;;22.89;50.00
66486;BME280;53303;47.476;8.084;2023-05-23T13:18:38;95257.31;;;22.93;49.99
66486;BME280;53303;47.476;8.084;2023-05-23T13:21:07;95257.31;;;22.93;50.10
66486;BME280;53303;47.476;8.084;2023-05-23T13:23:32;95255.78;;;22.92;49.99
66486;BME280;53303;47.476;8.084;2023-05-23T13:25:58;95259.03;;;22.96;50.02
66486;BME280;53303;47.476;8.084;2023-05-23T13:28:26;95246.41;;;22.95;49.98
66486;BME280;53303;47.476;8.084;2023-05-23T13:30:51;95247.13;;;22.95;50.05